sensor_id;sensor_type;location;lat;lon;timestamp;pressure;altitude;pressure_sealevel;temperature;humidity
19286;BME280;9776;50.798;6.430;2023-10-09T00:00:32;100693.25;;;19.81;56.77
19286;BME280;9776;50.798;6.430;2023-10-09T00:03:21;100700.44;;;19.80;57.01
19286;BME280;9776;50.798;6.430;2023-10-09T00:05:49;100705.19;;;19.78;56.86
19286;BME280;9776;50.798;6.430;2023-10-09T00:08:19;100702.28;;;19.80;56.92
19286;BME280;9776;50.798;6.430;2023-10-09T00:10:47;100694.66;;;19.77;56.97
19286;BME280;9776;50.798;6.430;2023-10-09T00:13:21;100698.56;;;19.74;57.08
19286;BME280;9776;50.798;6.430;2023-10-09T00:15:53;100704.53;;;19.70;57.00
19286;BME280;9776;50.798;6.430;2023-10-09T00:18:25;100706.19;;;19.71;57.39
19286;BME280;9776;50.798;6.430;2023-10-09T00:20:55;100698.97;;;19.65;57.19
19286;BME280;9776;50.798;6.430;2023-10-09T00:23:26;100694.84;;;19.62;57.57
19286;BME280;9776;50.798;6.430;2023-10-09T00:25:53;100697.69;;;19.61;57.59
19286;BME280;9776;50.798;6.430;2023-10-09T00:28:35;100690.66;;;19.60;57.60
19286;BME280;9776;50.798;6.430;2023-10-09T00:31:03;100693.75;;;19.57;57.74
19286;BME280;9776;50.798;6.430;2023-10-09T00:33:31;100693.75;;;19.57;57.68
19286;BME280;9776;50.798;6.430;2023-10-09T00:36:02;100676.88;;;19.56;57.49
19286;BME280;9776;50.798;6.430;2023-10-09T00:38:34;100680.75;;;19.54;57.76
19286;BME280;9776;50.798;6.430;2023-10-09T00:41:01;100680.13;;;19.52;57.93
19286;BME280;9776;50.798;6.430;2023-10-09T00:43:37;100684.47;;;19.53;57.89
19286;BME280;9776;50.798;6.430;2023-10-09T00:46:09;100681.19;;;19.51;57.91
19286;BME280;9776;50.798;6.430;2023-10-09T00:48:50;100677.84;;;19.49;58.13
19286;BME280;9776;50.798;6.430;2023-10-09T00:51:18;100678.06;;;19.47;58.35
19286;BME280;9776;50.798;6.430;2023-10-09T00:53:45;100670.44;;;19.44;58.64
19286;BME280;9776;50.798;6.430;2023-10-09T00:56:15;100672.06;;;19.45;58.60
19286;BME280;9776;50.798;6.430;2023-10-09T00:58:56;100666.91;;;19.44;59.03
19286;BME280;9776;50.798;6.430;2023-10-09T01:01:26;100661.78;;;19.42;59.08
19286;BME280;9776;50.798;6.430;2023-10-09T01:04:01;100664.63;;;19.41;59.04
19286;BME280;9776;50.798;6.430;2023-10-09T01:06:38;100652.28;;;19.40;59.34
19286;BME280;9776;50.798;6.430;2023-10-09T01:09:10;100659.66;;;19.38;59.24
19286;BME280;9776;50.798;6.430;2023-10-09T01:11:38;100649.78;;;19.38;59.32
19286;BME280;9776;50.798;6.430;2023-10-09T01:14:14;100647.97;;;19.39;59.36
19286;BME280;9776;50.798;6.430;2023-10-09T01:16:42;100649.78;;;19.38;59.61
19286;BME280;9776;50.798;6.430;2023-10-09T01:19:09;100644.59;;;19.37;59.60
19286;BME280;9776;50.798;6.430;2023-10-09T01:21:49;100650.16;;;19.35;59.85
19286;BME280;9776;50.798;6.430;2023-10-09T01:24:18;100651.41;;;19.33;59.65
19286;BME280;9776;50.798;6.430;2023-10-09T01:26:46;100643.75;;;19.30;59.82
19286;BME280;9776;50.798;6.430;2023-10-09T01:29:15;100645.16;;;19.25;59.95
19286;BME280;9776;50.798;6.430;2023-10-09T01:31:45;100645.00;;;19.27;60.05
19286;BME280;9776;50.798;6.430;2023-10-09T01:34:18;100645.59;;;19.29;60.09
19286;BME280;9776;50.798;6.430;2023-10-09T01:36:50;100644.19;;;19.33;59.98
19286;BME280;9776;50.798;6.430;2023-10-09T01:39:21;100632.88;;;19.38;60.01
19286;BME280;9776;50.798;6.430;2023-10-09T01:41:50;100629.66;;;19.42;59.85
19286;BME280;9776;50.798;6.430;2023-10-09T01:44:23;100626.75;;;19.44;59.78
19286;BME280;9776;50.798;6.430;2023-10-09T01:46:51;100622.84;;;19.46;59.92
19286;BME280;9776;50.798;6.430;2023-10-09T01:49:20;100627.81;;;19.49;59.92
19286;BME280;9776;50.798;6.430;2023-10-09T01:51:55;100616.28;;;19.49;59.84
19286;BME280;9776;50.798;6.430;2023-10-09T01:54:26;100621.22;;;19.52;59.87
19286;BME280;9776;50.798;6.430;2023-10-09T01:57:02;100620.63;;;19.50;59.71
19286;BME280;9776;50.798;6.430;2023-10-09T01:59:36;100617.72;;;19.51;59.82
19286;BME280;9776;50.798;6.430;2023-10-09T02:02:09;100606.22;;;19.51;59.72
19286;BME280;9776;50.798;6.430;2023-10-09T02:04:50;100609.06;;;19.49;60.13
19286;BME280;9776;50.798;6.430;2023-10-09T02:07:16;100617.72;;;19.51;60.03
19286;BME280;9776;50.798;6.430;2023-10-09T02:09:54;100623.28;;;19.50;60.09
19286;BME280;9776;50.798;6.430;2023-10-09T02:12:21;100623.28;;;19.50;59.93
19286;BME280;9776;50.798;6.430;2023-10-09T02:14:50;100627.63;;;19.51;60.16
19286;BME280;9776;50.798;6.430;2023-10-09T02:17:19;100631.94;;;19.52;60.07
19286;BME280;9776;50.798;6.430;2023-10-09T02:19:50;100621.22;;;19.52;59.93
19286;BME280;9776;50.798;6.430;2023-10-09T02:22:17;100623.28;;;19.50;60.08
19286;BME280;9776;50.798;6.430;2023-10-09T02:24:45;100623.06;;;19.51;60.15
19286;BME280;9776;50.798;6.430;2023-10-09T02:27:24;100621.44;;;19.50;60.10
19286;BME280;9776;50.798;6.430;2023-10-09T02:30:10;100618.94;;;19.49;60.11
19286;BME280;9776;50.798;6.430;2023-10-09T02:32:44;100608.25;;;19.49;60.38
19286;BME280;9776;50.798;6.430;2023-10-09T02:35:14;100620.63;;;19.50;60.18
19286;BME280;9776;50.798;6.430;2023-10-09T02:38:01;100623.69;;;19.47;60.37
19286;BME280;9776;50.798;6.430;2023-10-09T02:40:29;100623.06;;;19.45;60.53
19286;BME280;9776;50.798;6.430;2023-10-09T02:43:08;100629.66;;;19.42;60.47
19286;BME280;9776;50.798;6.430;2023-10-09T02:45:38;100623.47;;;19.42;60.56
19286;BME280;9776;50.798;6.430;2023-10-09T02:48:16;100625.50;;;19.40;60.48
19286;BME280;9776;50.798;6.430;2023-10-09T02:50:45;100614.78;;;19.40;60.73
19286;BME280;9776;50.798;6.430;2023-10-09T02:53:12;100619.34;;;19.39;60.70
19286;BME280;9776;50.798;6.430;2023-10-09T02:55:44;100619.50;;;19.38;60.80
19286;BME280;9776;50.798;6.430;2023-10-09T02:58:29;100619.88;;;19.35;60.84
19286;BME280;9776;50.798;6.430;2023-10-09T03:00:57;100611.88;;;19.35;60.63
19286;BME280;9776;50.798;6.430;2023-10-09T03:03:25;100618.44;;;19.32;60.74
19286;BME280;9776;50.798;6.430;2023-10-09T03:05:52;100608.97;;;19.30;60.98
19286;BME280;9776;50.798;6.430;2023-10-09T03:08:18;100601.13;;;19.28;60.96
19286;BME280;9776;50.798;6.430;2023-10-09T03:10:45;100610.38;;;19.25;61.03
19286;BME280;9776;50.798;6.430;2023-10-09T03:13:13;100609.53;;;19.25;60.83
19286;BME280;9776;50.798;6.430;2023-10-09T03:15:46;100601.72;;;19.23;61.01
19286;BME280;9776;50.798;6.430;2023-10-09T03:18:14;100610.78;;;19.22;60.83
19286;BME280;9776;50.798;6.430;2023-10-09T03:20:40;100609.13;;;19.21;61.10
19286;BME280;9776;50.798;6.430;2023-10-09T03:23:09;100614.69;;;19.20;61.03
19286;BME280;9776;50.798;6.430;2023-10-09T03:25:40;100614.50;;;19.21;61.12
19286;BME280;9776;50.798;6.430;2023-10-09T03:28:10;100611.38;;;19.18;60.90
19286;BME280;9776;50.798;6.430;2023-10-09T03:30:37;100603.34;;;19.18;60.88
19286;BME280;9776;50.798;6.430;2023-10-09T03:33:07;100614.22;;;19.16;61.18
19286;BME280;9776;50.798;6.430;2023-10-09T03:35:34;100610.13;;;19.14;61.04
19286;BME280;9776;50.798;6.430;2023-10-09T03:38:01;100614.63;;;19.13;60.86
19286;BME280;9776;50.798;6.430;2023-10-09T03:40:37;100615.84;;;19.11;60.87
19286;BME280;9776;50.798;6.430;2023-10-09T03:43:04;100607.66;;;19.12;60.81
19286;BME280;9776;50.798;6.430;2023-10-09T03:45:31;100607.66;;;19.12;60.94
19286;BME280;9776;50.798;6.430;2023-10-09T03:48:00;100607.03;;;19.10;61.01
19286;BME280;9776;50.798;6.430;2023-10-09T03:50:35;100618.75;;;19.09;60.79
19286;BME280;9776;50.798;6.430;2023-10-09T03:53:03;100613.97;;;19.05;60.93
19286;BME280;9776;50.798;6.430;2023-10-09T03:55:31;100606.78;;;19.05;60.90
19286;BME280;9776;50.798;6.430;2023-10-09T03:57:58;100608.81;;;19.03;60.87
19286;BME280;9776;50.798;6.430;2023-10-09T04:00:29;100597.28;;;19.03;60.73
19286;BME280;9776;50.798;6.430;2023-10-09T04:02:57;100607.16;;;19.02;60.87
19286;BME280;9776;50.798;6.430;2023-10-09T04:05:24;100604.09;;;18.99;60.82
19286;BME280;9776;50.798;6.430;2023-10-09T04:07:54;100613.75;;;19.00;61.14
19286;BME280;9776;50.798;6.430;2023-10-09T04:10:23;100616.63;;;18.98;60.75
19286;BME280;9776;50.798;6.430;2023-10-09T04:13:08;100615.78;;;18.98;60.92
19286;BME280;9776;50.798;6.430;2023-10-09T04:15:36;100607.78;;;18.98;60.81
19286;BME280;9776;50.798;6.430;2023-10-09T04:18:03;100610.00;;;18.94;60.93
19286;BME280;9776;50.798;6.430;2023-10-09T04:20:31;100603.00;;;18.93;61.07
19286;BME280;9776;50.798;6.430;2023-10-09T04:23:16;100605.88;;;18.92;60.87
19286;BME280;9776;50.798;6.430;2023-10-09T04:25:59;100595.41;;;18.90;61.04
19286;BME280;9776;50.798;6.430;2023-10-09T04:28:36;100591.06;;;18.89;61.05
19286;BME280;9776;50.798;6.430;2023-10-09T04:31:02;100593.09;;;18.87;61.04
19286;BME280;9776;50.798;6.430;2023-10-09T04:33:31;100595.13;;;18.85;60.97
19286;BME280;9776;50.798;6.430;2023-10-09T04:36:08;100597.41;;;18.88;60.73
19286;BME280;9776;50.798;6.430;2023-10-09T04:38:43;100600.09;;;18.88;60.65
19286;BME280;9776;50.798;6.430;2023-10-09T04:41:21;100600.47;;;18.85;60.61
19286;BME280;9776;50.798;6.430;2023-10-09T04:43:53;100611.19;;;18.85;60.70
19286;BME280;9776;50.798;6.430;2023-10-09T04:46:29;100612.00;;;18.86;60.78
19286;BME280;9776;50.798;6.430;2023-10-09T04:49:09;100615.31;;;18.88;60.42
19286;BME280;9776;50.798;6.430;2023-10-09T04:51:52;100609.34;;;18.86;60.61
19286;BME280;9776;50.798;6.430;2023-10-09T04:54:31;100600.09;;;18.88;60.39
19286;BME280;9776;50.798;6.430;2023-10-09T04:57:14;100601.53;;;18.84;60.48
19286;BME280;9776;50.798;6.430;2023-10-09T04:59:44;100597.81;;;18.85;60.40
19286;BME280;9776;50.798;6.430;2023-10-09T05:02:13;100596.78;;;18.86;60.35
19286;BME280;9776;50.798;6.430;2023-10-09T05:04:45;100594.31;;;18.85;60.18
19286;BME280;9776;50.798;6.430;2023-10-09T05:07:13;100595.13;;;18.85;60.02
19286;BME280;9776;50.798;6.430;2023-10-09T05:09:50;100593.28;;;18.86;60.00
19286;BME280;9776;50.798;6.430;2023-10-09T05:12:34;100589.78;;;18.85;60.01
19286;BME280;9776;50.798;6.430;2023-10-09T05:14:59;100590.16;;;18.82;59.99
19286;BME280;9776;50.798;6.430;2023-10-09T05:17:34;100591.44;;;18.86;60.25
19286;BME280;9776;50.798;6.430;2023-10-09T05:20:01;100591.44;;;18.86;60.19
19286;BME280;9776;50.798;6.430;2023-10-09T05:22:54;100589.38;;;18.88;60.05
19286;BME280;9776;50.798;6.430;2023-10-09T05:25:25;100587.75;;;18.87;60.08
19286;BME280;9776;50.798;6.430;2023-10-09T05:28:10;100577.25;;;18.86;60.14
19286;BME280;9776;50.798;6.430;2023-10-09T05:30:56;100568.38;;;18.85;60.22
19286;BME280;9776;50.798;6.430;2023-10-09T05:33:28;100566.09;;;18.82;60.11
19286;BME280;9776;50.798;6.430;2023-10-09T05:35:55;100562.41;;;18.83;60.12
19286;BME280;9776;50.798;6.430;2023-10-09T05:38:47;100567.94;;;18.82;60.25
19286;BME280;9776;50.798;6.430;2023-10-09T05:41:27;100563.63;;;18.81;59.85
19286;BME280;9776;50.798;6.430;2023-10-09T05:44:13;100559.31;;;18.80;59.97
19286;BME280;9776;50.798;6.430;2023-10-09T05:46:58;100550.44;;;18.79;59.98
19286;BME280;9776;50.798;6.430;2023-10-09T05:49:42;100565.47;;;18.80;59.69
19286;BME280;9776;50.798;6.430;2023-10-09T05:52:26;100565.47;;;18.80;59.53
19286;BME280;9776;50.798;6.430;2023-10-09T05:55:26;100563.03;;;18.79;59.89
19286;BME280;9776;50.798;6.430;2023-10-09T05:58:11;100570.00;;;18.80;59.64
19286;BME280;9776;50.798;6.430;2023-10-09T06:00:56;100573.50;;;18.80;59.65
19286;BME280;9776;50.798;6.430;2023-10-09T06:03:45;100567.31;;;18.80;59.59
19286;BME280;9776;50.798;6.430;2023-10-09T06:06:14;100568.16;;;18.80;59.40
19286;BME280;9776;50.798;6.430;2023-10-09T06:08:58;100568.78;;;18.82;59.03
19286;BME280;9776;50.798;6.430;2023-10-09T06:11:38;100574.78;;;18.84;59.04
19286;BME280;9776;50.798;6.430;2023-10-09T06:14:07;100572.09;;;18.84;59.03
19286;BME280;9776;50.798;6.430;2023-10-09T06:16:39;100577.06;;;18.87;58.87
19286;BME280;9776;50.798;6.430;2023-10-09T06:19:08;100563.03;;;18.85;58.90
19286;BME280;9776;50.798;6.430;2023-10-09T06:21:34;100569.22;;;18.86;58.69
19286;BME280;9776;50.798;6.430;2023-10-09T06:24:26;100574.97;;;18.83;58.73
19286;BME280;9776;50.798;6.430;2023-10-09T06:26:59;100590.00;;;18.84;58.66
19286;BME280;9776;50.798;6.430;2023-10-09T06:29:42;100583.81;;;18.83;58.61
19286;BME280;9776;50.798;6.430;2023-10-09T06:32:38;100584.44;;;18.85;58.72
19286;BME280;9776;50.798;6.430;2023-10-09T06:35:11;100583.84;;;18.90;58.53
19286;BME280;9776;50.798;6.430;2023-10-09T06:37:48;100591.50;;;18.99;58.50
19286;BME280;9776;50.798;6.430;2023-10-09T06:40:33;100598.13;;;19.03;58.30
19286;BME280;9776;50.798;6.430;2023-10-09T06:43:17;100592.38;;;19.06;58.20
19286;BME280;9776;50.798;6.430;2023-10-09T06:45:54;100588.09;;;19.12;58.13
19286;BME280;9776;50.798;6.430;2023-10-09T06:48:24;100578.84;;;19.14;58.09
19286;BME280;9776;50.798;6.430;2023-10-09T06:51:12;100572.47;;;19.15;57.96
19286;BME280;9776;50.798;6.430;2023-10-09T06:54:02;100582.13;;;19.16;57.86
19286;BME280;9776;50.798;6.430;2023-10-09T06:56:32;100613.44;;;19.22;57.70
19286;BME280;9776;50.798;6.430;2023-10-09T06:59:12;100627.09;;;19.27;57.96
19286;BME280;9776;50.798;6.430;2023-10-09T07:01:48;100628.13;;;19.33;57.66
19286;BME280;9776;50.798;6.430;2023-10-09T07:04:36;100624.63;;;19.33;57.73
19286;BME280;9776;50.798;6.430;2023-10-09T07:07:20;100642.31;;;19.34;57.63
19286;BME280;9776;50.798;6.430;2023-10-09T07:09:46;100641.94;;;19.37;57.71
19286;BME280;9776;50.798;6.430;2023-10-09T07:12:27;100636.38;;;19.38;57.67
19286;BME280;9776;50.798;6.430;2023-10-09T07:14:53;100647.75;;;19.40;57.40
19286;BME280;9776;50.798;6.430;2023-10-09T07:17:50;100652.31;;;19.46;57.26
19286;BME280;9776;50.798;6.430;2023-10-09T07:20:21;100638.97;;;19.53;57.27
19286;BME280;9776;50.798;6.430;2023-10-09T07:23:01;100653.59;;;19.57;57.04
19286;BME280;9776;50.798;6.430;2023-10-09T07:25:40;100649.06;;;19.57;57.07
19286;BME280;9776;50.798;6.430;2023-10-09T07:28:09;100660.03;;;19.62;56.85
19286;BME280;9776;50.798;6.430;2023-10-09T07:30:55;100650.50;;;19.60;57.07
19286;BME280;9776;50.798;6.430;2023-10-09T07:33:25;100664.94;;;19.59;56.77
19286;BME280;9776;50.798;6.430;2023-10-09T07:36:16;100669.25;;;19.60;56.85
19286;BME280;9776;50.798;6.430;2023-10-09T07:38:55;100664.16;;;19.65;56.85
19286;BME280;9776;50.798;6.430;2023-10-09T07:41:30;100672.78;;;19.67;56.93
19286;BME280;9776;50.798;6.430;2023-10-09T07:44:04;100669.28;;;19.66;56.95
19286;BME280;9776;50.798;6.430;2023-10-09T07:46:44;100671.56;;;19.69;56.79
19286;BME280;9776;50.798;6.430;2023-10-09T07:49:39;100669.31;;;19.73;56.98
19286;BME280;9776;50.798;6.430;2023-10-09T07:52:05;100670.94;;;19.74;56.58
19286;BME280;9776;50.798;6.430;2023-10-09T07:54:32;100670.94;;;19.74;56.89
19286;BME280;9776;50.798;6.430;2023-10-09T07:56:59;100677.97;;;19.75;56.89
19286;BME280;9776;50.798;6.430;2023-10-09T07:59:34;100675.28;;;19.75;56.80
19286;BME280;9776;50.798;6.430;2023-10-09T08:02:07;100676.97;;;19.76;56.88
19286;BME280;9776;50.798;6.430;2023-10-09T08:04:40;100678.41;;;19.78;56.98
19286;BME280;9776;50.798;6.430;2023-10-09T08:07:15;100678.84;;;19.82;56.79
19286;BME280;9776;50.798;6.430;2023-10-09T08:09:51;100673.69;;;19.87;56.71
19286;BME280;9776;50.798;6.430;2023-10-09T08:12:37;100687.31;;;19.92;56.83
19286;BME280;9776;50.798;6.430;2023-10-09T08:15:20;100699.47;;;19.88;56.72
19286;BME280;9776;50.798;6.430;2023-10-09T08:17:51;100705.63;;;19.89;56.79
19286;BME280;9776;50.798;6.430;2023-10-09T08:20:22;100706.66;;;19.94;56.70
19286;BME280;9776;50.798;6.430;2023-10-09T08:22:51;100696.59;;;19.96;56.75
19286;BME280;9776;50.798;6.430;2023-10-09T08:25:21;100688.56;;;19.96;56.79
19286;BME280;9776;50.798;6.430;2023-10-09T08:27:55;100690.00;;;19.99;56.55
19286;BME280;9776;50.798;6.430;2023-10-09T08:30:23;100691.28;;;20.03;56.79
19286;BME280;9776;50.798;6.430;2023-10-09T08:33:06;100676.44;;;20.13;56.52
19286;BME280;9776;50.798;6.430;2023-10-09T08:35:48;100691.56;;;20.27;56.36
19286;BME280;9776;50.798;6.430;2023-10-09T08:38:17;100701.09;;;20.43;55.93
19286;BME280;9776;50.798;6.430;2023-10-09T08:40:49;100695.50;;;20.51;55.72
19286;BME280;9776;50.798;6.430;2023-10-09T08:43:21;100697.97;;;20.53;55.63
19286;BME280;9776;50.798;6.430;2023-10-09T08:45:49;100689.09;;;20.52;55.68
19286;BME280;9776;50.798;6.430;2023-10-09T08:48:18;100673.81;;;20.46;55.78
19286;BME280;9776;50.798;6.430;2023-10-09T08:50:49;100667.03;;;20.44;55.95
19286;BME280;9776;50.798;6.430;2023-10-09T08:53:16;100672.19;;;20.38;55.91
19286;BME280;9776;50.798;6.430;2023-10-09T08:55:43;100681.25;;;20.37;55.92
19286;BME280;9776;50.798;6.430;2023-10-09T08:58:12;100670.13;;;20.41;55.58
19286;BME280;9776;50.798;6.430;2023-10-09T09:00:44;100667.88;;;20.51;55.36
19286;BME280;9776;50.798;6.430;2023-10-09T09:03:11;100667.25;;;20.62;55.24
19286;BME280;9776;50.798;6.430;2023-10-09T09:05:37;100664.13;;;20.84;54.69
19286;BME280;9776;50.798;6.430;2023-10-09T09:08:21;100662.88;;;21.07;54.18
19286;BME280;9776;50.798;6.430;2023-10-09T09:10:56;100676.25;;;21.33;53.71
19286;BME280;9776;50.798;6.430;2023-10-09T09:13:24;100685.06;;;21.53;53.34
19286;BME280;9776;50.798;6.430;2023-10-09T09:15:50;100670.13;;;21.70;53.02
19286;BME280;9776;50.798;6.430;2023-10-09T09:18:18;100660.97;;;21.91;52.48
19286;BME280;9776;50.798;6.430;2023-10-09T09:20:47;100654.66;;;22.10;52.10
19286;BME280;9776;50.798;6.430;2023-10-09T09:23:20;100650.03;;;22.24;51.70
19286;BME280;9776;50.798;6.430;2023-10-09T09:25:49;100642.13;;;22.29;51.56
19286;BME280;9776;50.798;6.430;2023-10-09T09:28:24;100633.34;;;22.40;51.15
19286;BME280;9776;50.798;6.430;2023-10-09T09:30:53;100647.69;;;22.58;50.75
19286;BME280;9776;50.798;6.430;2023-10-09T09:33:22;100652.47;;;22.81;50.19
19286;BME280;9776;50.798;6.430;2023-10-09T09:36:02;100656.25;;;22.98;49.74
19286;BME280;9776;50.798;6.430;2023-10-09T09:38:33;100651.84;;;23.04;49.72
19286;BME280;9776;50.798;6.430;2023-10-09T09:41:17;100659.50;;;23.25;49.44
19286;BME280;9776;50.798;6.430;2023-10-09T09:43:51;100664.00;;;23.49;48.73
19286;BME280;9776;50.798;6.430;2023-10-09T09:46:21;100650.84;;;23.59;48.34
19286;BME280;9776;50.798;6.430;2023-10-09T09:48:53;100636.50;;;23.77;47.83
19286;BME280;9776;50.798;6.430;2023-10-09T09:51:25;100638.84;;;24.03;47.10
19286;BME280;9776;50.798;6.430;2023-10-09T09:53:56;100641.41;;;24.40;46.28
19286;BME280;9776;50.798;6.430;2023-10-09T09:56:25;100639.31;;;24.76;45.32
19286;BME280;9776;50.798;6.430;2023-10-09T09:58:52;100639.13;;;25.01;44.61
19286;BME280;9776;50.798;6.430;2023-10-09T10:01:26;100627.47;;;25.24;43.89
19286;BME280;9776;50.798;6.430;2023-10-09T10:04:01;100625.31;;;25.49;43.59
19286;BME280;9776;50.798;6.430;2023-10-09T10:06:32;100610.28;;;25.81;42.58
19286;BME280;9776;50.798;6.430;2023-10-09T10:09:02;100613.44;;;26.07;41.63
19286;BME280;9776;50.798;6.430;2023-10-09T10:11:42;100609.47;;;26.42;40.46
19286;BME280;9776;50.798;6.430;2023-10-09T10:14:09;100601.06;;;26.77;39.32
19286;BME280;9776;50.798;6.430;2023-10-09T10:17:00;100602.34;;;27.08;38.29
19286;BME280;9776;50.798;6.430;2023-10-09T10:19:58;100594.59;;;27.60;37.30
19286;BME280;9776;50.798;6.430;2023-10-09T10:22:27;100591.75;;;27.98;36.03
19286;BME280;9776;50.798;6.430;2023-10-09T10:24:56;100590.25;;;28.07;35.59
19286;BME280;9776;50.798;6.430;2023-10-09T10:27:28;100587.06;;;27.94;35.61
19286;BME280;9776;50.798;6.430;2023-10-09T10:30:28;100582.84;;;27.76;35.34
19286;BME280;9776;50.798;6.430;2023-10-09T10:33:02;100582.56;;;27.51;35.87
19286;BME280;9776;50.798;6.430;2023-10-09T10:35:41;100580.69;;;27.30;35.90
19286;BME280;9776;50.798;6.430;2023-10-09T10:38:31;100577.66;;;27.26;35.55
19286;BME280;9776;50.798;6.430;2023-10-09T10:41:17;100578.97;;;27.24;35.63
19286;BME280;9776;50.798;6.430;2023-10-09T10:43:45;100577.97;;;27.30;35.59
19286;BME280;9776;50.798;6.430;2023-10-09T10:46:24;100576.69;;;27.37;35.30
19286;BME280;9776;50.798;6.430;2023-10-09T10:48:56;100564.34;;;27.46;34.92
19286;BME280;9776;50.798;6.430;2023-10-09T10:51:26;100565.09;;;27.64;34.54
19286;BME280;9776;50.798;6.430;2023-10-09T10:54:01;100568.94;;;27.68;34.48
19286;BME280;9776;50.798;6.430;2023-10-09T10:56:50;100555.56;;;27.39;34.35
19286;BME280;9776;50.798;6.430;2023-10-09T10:59:17;100563.91;;;27.11;34.40
19286;BME280;9776;50.798;6.430;2023-10-09T11:01:51;100561.03;;;26.79;34.48
19286;BME280;9776;50.798;6.430;2023-10-09T11:04:39;100558.84;;;26.60;34.72
19286;BME280;9776;50.798;6.430;2023-10-09T11:07:09;100560.66;;;26.54;34.47
19286;BME280;9776;50.798;6.430;2023-10-09T11:09:45;100554.97;;;26.56;34.62
19286;BME280;9776;50.798;6.430;2023-10-09T11:12:27;100560.88;;;26.52;34.59
19286;BME280;9776;50.798;6.430;2023-10-09T11:15:04;100571.56;;;26.59;34.30
19286;BME280;9776;50.798;6.430;2023-10-09T11:17:44;100578.25;;;26.73;34.41
19286;BME280;9776;50.798;6.430;2023-10-09T11:20:12;100575.41;;;26.80;34.13
19286;BME280;9776;50.798;6.430;2023-10-09T11:22:52;100585.75;;;26.83;34.34
19286;BME280;9776;50.798;6.430;2023-10-09T11:25:42;100594.00;;;26.93;33.90
19286;BME280;9776;50.798;6.430;2023-10-09T11:28:19;100604.34;;;26.96;33.89
19286;BME280;9776;50.798;6.430;2023-10-09T11:30:55;100617.66;;;26.97;33.88
19286;BME280;9776;50.798;6.430;2023-10-09T11:33:43;100611.00;;;26.88;33.89
19286;BME280;9776;50.798;6.430;2023-10-09T11:36:10;100616.03;;;26.80;34.16
19286;BME280;9776;50.798;6.430;2023-10-09T11:38:36;100621.19;;;26.65;34.41
19286;BME280;9776;50.798;6.430;2023-10-09T11:41:12;100621.94;;;26.60;34.56
19286;BME280;9776;50.798;6.430;2023-10-09T11:43:53;100618.63;;;26.58;34.54
19286;BME280;9776;50.798;6.430;2023-10-09T11:46:21;100626.38;;;26.66;34.62
19286;BME280;9776;50.798;6.430;2023-10-09T11:49:06;100618.38;;;26.76;34.55
19286;BME280;9776;50.798;6.430;2023-10-09T11:52:06;100620.63;;;26.79;34.81
19286;BME280;9776;50.798;6.430;2023-10-09T11:54:50;100612.28;;;26.81;34.92
19286;BME280;9776;50.798;6.430;2023-10-09T11:57:22;100614.84;;;26.76;34.75
19286;BME280;9776;50.798;6.430;2023-10-09T11:59:57;100621.09;;;26.76;34.82
19286;BME280;9776;50.798;6.430;2023-10-09T12:02:25;100607.16;;;26.68;34.97
19286;BME280;9776;50.798;6.430;2023-10-09T12:04:52;100617.97;;;26.68;35.22
19286;BME280;9776;50.798;6.430;2023-10-09T12:07:22;100619.06;;;26.83;35.18
19286;BME280;9776;50.798;6.430;2023-10-09T12:09:48;100623.72;;;26.88;35.06
19286;BME280;9776;50.798;6.430;2023-10-09T12:12:17;100619.13;;;26.88;35.20
19286;BME280;9776;50.798;6.430;2023-10-09T12:14:44;100621.91;;;26.93;35.26
19286;BME280;9776;50.798;6.430;2023-10-09T12:17:12;100614.94;;;26.97;34.97
19286;BME280;9776;50.798;6.430;2023-10-09T12:19:39;100612.16;;;26.92;34.85
19286;BME280;9776;50.798;6.430;2023-10-09T12:22:07;100615.38;;;26.89;35.32
19286;BME280;9776;50.798;6.430;2023-10-09T12:24:36;100613.53;;;26.78;35.33
19286;BME280;9776;50.798;6.430;2023-10-09T12:27:08;100607.66;;;26.65;35.28
19286;BME280;9776;50.798;6.430;2023-10-09T12:29:37;100601.75;;;26.51;35.60
19286;BME280;9776;50.798;6.430;2023-10-09T12:32:04;100601.44;;;26.47;35.62
19286;BME280;9776;50.798;6.430;2023-10-09T12:34:37;100608.50;;;26.48;35.48
19286;BME280;9776;50.798;6.430;2023-10-09T12:37:04;100610.38;;;26.48;35.22
19286;BME280;9776;50.798;6.430;2023-10-09T12:39:31;100608.81;;;26.52;35.43
19286;BME280;9776;50.798;6.430;2023-10-09T12:41:59;100609.63;;;26.52;35.17
19286;BME280;9776;50.798;6.430;2023-10-09T12:44:32;100611.44;;;26.47;35.36
19286;BME280;9776;50.798;6.430;2023-10-09T12:46:59;100603.16;;;26.37;35.46
19286;BME280;9776;50.798;6.430;2023-10-09T12:49:30;100600.88;;;26.29;35.28
19286;BME280;9776;50.798;6.430;2023-10-09T12:51:58;100595.34;;;26.24;35.71
19286;BME280;9776;50.798;6.430;2023-10-09T12:54:25;100604.34;;;26.13;35.61
19286;BME280;9776;50.798;6.430;2023-10-09T12:56:53;100601.63;;;25.96;35.91
19286;BME280;9776;50.798;6.430;2023-10-09T12:59:20;100599.66;;;25.91;35.83
19286;BME280;9776;50.798;6.430;2023-10-09T13:01:47;100604.38;;;25.84;36.04
19286;BME280;9776;50.798;6.430;2023-10-09T13:04:17;100606.09;;;25.74;36.36
19286;BME280;9776;50.798;6.430;2023-10-09T13:06:47;100609.75;;;25.68;36.52
19286;BME280;9776;50.798;6.430;2023-10-09T13:09:20;100617.16;;;25.61;36.42
19286;BME280;9776;50.798;6.430;2023-10-09T13:11:58;100630.25;;;25.52;36.83
19286;BME280;9776;50.798;6.430;2023-10-09T13:14:26;100624.38;;;25.44;36.93
19286;BME280;9776;50.798;6.430;2023-10-09T13:16:53;100621.34;;;25.28;36.98
19286;BME280;9776;50.798;6.430;2023-10-09T13:19:20;100619.25;;;25.19;37.07
19286;BME280;9776;50.798;6.430;2023-10-09T13:21:49;100619.59;;;25.11;37.39
19286;BME280;9776;50.798;6.430;2023-10-09T13:24:16;100615.75;;;25.07;37.30
19286;BME280;9776;50.798;6.430;2023-10-09T13:26:45;100618.56;;;25.12;37.48
19286;BME280;9776;50.798;6.430;2023-10-09T13:29:16;100619.50;;;25.06;37.62
19286;BME280;9776;50.798;6.430;2023-10-09T13:31:48;100621.63;;;25.04;37.85
19286;BME280;9776;50.798;6.430;2023-10-09T13:34:18;100623.75;;;25.02;38.15